Time;durP1;ratioP1;P1;durP2;ratioP2;P2;SDS_P1;SDS_P2;PMS_P1;PMS_P2;Temp;Humidity;BMP_temperature;BMP_pressure;BME280_temperature;BME280_humidity;BME280_pressure;Samples;Min_cycle;Max_cycle;Signal;HPM_P1;HPM_P2
2023/06/14 00:00:09;;;;;;;28.23;15.85;;;;;;;16.36;54.35;101256.91;5052441;28;20035;-43
2023/06/14 00:02:34;;;;;;;29.67;15.93;;;;;;;16.40;54.11;101253.50;5052668;28;20472;-43
2023/06/14 00:05:00;;;;;;;27.13;16.60;;;;;;;16.39;54.18;101257.81;5053151;28;20051;-45
2023/06/14 00:07:42;;;;;;;27.58;16.20;;;;;;;16.45;53.25;101263.09;5052119;28;20027;-44
2023/06/14 00:10:08;;;;;;;30.38;16.05;;;;;;;16.38;53.44;101263.00;5053245;28;20023;-43
2023/06/14 00:12:34;;;;;;;30.60;15.95;;;;;;;16.37;53.23;101258.66;5052513;28;20021;-43
2023/06/14 00:15:01;;;;;;;28.10;16.58;;;;;;;16.29;53.82;101259.44;5052194;28;20021;-47
2023/06/14 00:17:29;;;;;;;32.22;15.77;;;;;;;16.20;54.38;101266.25;5052620;28;20487;-45
2023/06/14 00:19:58;;;;;;;30.45;16.05;;;;;;;16.16;54.17;101259.28;5052638;28;20480;-43
2023/06/14 00:22:30;;;;;;;33.92;16.35;;;;;;;16.04;54.42;101254.78;5051861;28;20025;-45
2023/06/14 00:24:56;;;;;;;25.23;15.57;;;;;;;15.99;54.38;101256.44;5052700;28;20024;-44
2023/06/14 00:27:21;;;;;;;27.67;15.27;;;;;;;15.90;54.25;101265.84;5052229;28;20033;-46
2023/06/14 00:29:46;;;;;;;24.05;14.88;;;;;;;15.85;55.02;101266.66;5052340;28;20025;-43
2023/06/14 00:32:12;;;;;;;28.40;15.48;;;;;;;15.93;53.55;101262.41;5052737;28;20035;-45
2023/06/14 00:34:37;;;;;;;27.80;14.85;;;;;;;15.89;52.34;101266.69;5052339;28;20032;-45
2023/06/14 00:37:02;;;;;;;27.33;14.70;;;;;;;15.75;53.88;101269.06;5052068;28;20112;-44
2023/06/14 00:39:28;;;;;;;29.48;14.27;;;;;;;15.69;54.63;101262.91;5052479;28;20021;-43
2023/06/14 00:41:53;;;;;;;26.20;14.75;;;;;;;15.63;54.39;101263.69;5052246;28;20419;-43
2023/06/14 00:44:18;;;;;;;25.02;14.00;;;;;;;15.59;53.92;101264.50;5051967;28;20033;-44
2023/06/14 00:46:46;;;;;;;27.95;14.32;;;;;;;15.55;53.29;101266.16;5052774;28;20020;-44
2023/06/14 00:49:15;;;;;;;22.63;14.10;;;;;;;15.63;51.83;101268.88;5051885;28;20021;-43
2023/06/14 00:51:41;;;;;;;29.27;13.77;;;;;;;15.66;51.23;101265.44;5052379;28;20021;-44
2023/06/14 00:54:06;;;;;;;28.40;13.70;;;;;;;15.59;52.32;101267.09;5054307;28;20385;-43
2023/06/14 00:56:32;;;;;;;22.33;12.52;;;;;;;15.57;52.42;101273.97;5055458;28;20029;-44
2023/06/14 00:58:58;;;;;;;24.80;13.02;;;;;;;15.53;52.15;101267.88;5056755;28;20025;-43
2023/06/14 01:01:24;;;;;;;24.23;13.25;;;;;;;15.51;52.65;101263.50;5056248;28;20473;-43
2023/06/14 01:03:50;;;;;;;25.40;12.77;;;;;;;15.43;52.54;101272.03;5055928;28;20159;-43
2023/06/14 01:06:30;;;;;;;25.23;13.38;;;;;;;15.53;52.05;101273.06;5056137;28;20028;-43
2023/06/14 01:09:37;;;;;;;25.70;14.02;;;;;;;15.47;51.21;101272.97;5056494;28;20021;-42
2023/06/14 01:12:11;;;;;;;24.35;12.60;;;;;;;15.40;52.22;101281.50;5055974;28;20037;-43
2023/06/14 01:14:37;;;;;;;37.40;12.95;;;;;;;15.38;51.89;101278.03;5055995;28;20033;-44
2023/06/14 01:17:04;;;;;;;26.08;13.55;;;;;;;15.27;53.05;101273.53;5055993;28;20029;-44
2023/06/14 01:19:31;;;;;;;23.10;12.25;;;;;;;15.26;52.83;101279.56;5055090;28;20047;-45
2023/06/14 01:21:57;;;;;;;27.57;13.20;;;;;;;15.20;53.31;101273.38;5056031;28;20472;-43
2023/06/14 01:24:25;;;;;;;27.42;13.27;;;;;;;15.12;54.44;101278.44;5055214;28;20086;-43
2023/06/14 01:26:55;;;;;;;31.13;14.05;;;;;;;15.07;53.50;101273.16;5056268;28;20021;-45
2023/06/14 01:29:23;;;;;;;23.55;13.13;;;;;;;15.01;54.33;101272.19;5055468;28;20464;-43
2023/06/14 01:31:50;;;;;;;30.15;13.27;;;;;;;14.96;54.57;101274.69;5055199;28;20048;-43
2023/06/14 01:34:15;;;;;;;28.80;13.93;;;;;;;14.89;54.66;101278.03;5055847;28;20107;-43
2023/06/14 01:36:43;;;;;;;26.00;13.00;;;;;;;14.75;55.82;101276.03;5055841;28;20537;-43
2023/06/14 01:39:13;;;;;;;31.58;13.43;;;;;;;14.68;55.90;101279.38;5055181;28;20013;-44
2023/06/14 01:41:39;;;;;;;25.25;12.82;;;;;;;14.54;56.93;101281.63;5055601;28;20032;-44
2023/06/14 01:44:05;;;;;;;32.08;14.15;;;;;;;14.43;57.60;101273.63;5055605;28;20068;-45
2023/06/14 01:46:31;;;;;;;28.90;13.07;;;;;;;14.35;57.95;101276.94;5054529;28;20413;-48
2023/06/14 01:48:56;;;;;;;31.23;12.73;;;;;;;14.26;58.52;101275.00;5055601;28;20055;-44
2023/06/14 01:51:21;;;;;;;24.40;12.75;;;;;;;14.21;58.52;101277.50;5055618;28;20025;-43
2023/06/14 01:53:48;;;;;;;24.88;13.20;;;;;;;14.14;58.69;101276.47;5054950;28;20032;-46
2023/06/14 01:56:13;;;;;;;27.25;13.65;;;;;;;14.05;60.02;101285.78;5055441;28;20507;-43
2023/06/14 01:58:39;;;;;;;25.25;13.02;;;;;;;14.02;59.68;101276.22;5054954;28;20047;-46
2023/06/14 02:01:05;;;;;;;29.40;13.20;;;;;;;13.96;60.30;101276.09;5054777;28;20063;-44
2023/06/14 02:03:30;;;;;;;27.17;12.63;;;;;;;13.92;60.79;101274.28;5055120;28;20024;-43
2023/06/14 02:05:56;;;;;;;29.30;12.90;;;;;;;13.89;60.68;101275.09;5054171;28;20059;-48
2023/06/14 02:08:22;;;;;;;26.48;13.05;;;;;;;13.83;61.13;101280.13;5054496;28;20032;-44
2023/06/14 02:10:47;;;;;;;24.65;13.20;;;;;;;13.80;61.04;101275.75;5055295;28;20059;-46
2023/06/14 02:13:12;;;;;;;25.80;13.35;;;;;;;13.82;61.34;101279.22;5054776;28;20045;-43
2023/06/14 02:15:38;;;;;;;22.67;12.82;;;;;;;13.74;61.73;101278.19;5054295;28;20051;-46
2023/06/14 02:18:04;;;;;;;27.42;13.48;;;;;;;13.85;60.42;101280.16;5054971;28;20028;-43
2023/06/14 02:20:30;;;;;;;25.67;12.82;;;;;;;13.88;60.42;101277.63;5053928;28;20191;-45
2023/06/14 02:22:55;;;;;;;26.38;14.52;;;;;;;13.86;60.92;101281.91;5054931;28;20488;-46
2023/06/14 02:25:20;;;;;;;26.55;13.30;;;;;;;13.86;60.86;101274.13;5054841;28;20377;-46
2023/06/14 02:27:46;;;;;;;26.15;13.20;;;;;;;13.97;59.48;101277.84;5054177;28;20055;-46
2023/06/14 02:30:12;;;;;;;24.17;12.05;;;;;;;13.94;60.00;101283.84;5054714;28;20025;-44
2023/06/14 02:32:38;;;;;;;26.08;12.40;;;;;;;14.04;59.67;101274.53;5054647;28;20029;-44
2023/06/14 02:35:03;;;;;;;27.98;12.07;;;;;;;14.14;59.47;101281.66;5053878;28;20499;-44
2023/06/14 02:37:29;;;;;;;25.48;12.48;;;;;;;14.10;59.92;101284.16;5054387;28;20033;-43
2023/06/14 02:39:55;;;;;;;24.98;12.68;;;;;;;14.04;60.54;101284.91;5054716;28;20028;-44
2023/06/14 02:42:21;;;;;;;39.90;13.55;;;;;;;14.03;60.10;101287.47;5053583;28;20112;-43
2023/06/14 02:44:50;;;;;;;30.73;13.02;;;;;;;14.03;59.04;101282.28;5054472;28;20108;-48
2023/06/14 02:47:16;;;;;;;25.55;11.95;;;;;;;13.96;60.59;101284.72;5054409;28;20026;-46
2023/06/14 02:49:41;;;;;;;33.13;13.50;;;;;;;13.99;60.01;101284.81;5053715;28;20025;-43
2023/06/14 02:52:08;;;;;;;24.17;11.88;;;;;;;14.05;59.40;101291.84;5054673;28;20147;-43
2023/06/14 02:54:34;;;;;;;29.40;12.77;;;;;;;14.00;60.43;101293.44;5054186;28;20017;-44
2023/06/14 02:56:59;;;;;;;26.60;12.23;;;;;;;13.92;61.10;101295.88;5053667;28;20435;-46
2023/06/14 02:59:25;;;;;;;24.95;12.65;;;;;;;13.85;62.37;101287.91;5053888;28;20100;-48
2023/06/14 03:01:50;;;;;;;24.13;12.00;;;;;;;13.76;62.47;101286.88;5054099;28;20082;-44
2023/06/14 03:04:16;;;;;;;31.73;12.23;;;;;;;13.84;61.14;101287.06;5053257;28;20075;-43
2023/06/14 03:06:44;;;;;;;25.98;12.45;;;;;;;13.71;62.35;101292.75;5054169;28;20031;-48
2023/06/14 03:09:09;;;;;;;28.40;12.50;;;;;;;13.69;62.80;101292.75;5053991;28;20017;-44
2023/06/14 03:11:35;;;;;;;27.08;12.48;;;;;;;13.64;63.08;101294.34;5053132;28;20064;-44
2023/06/14 03:14:03;;;;;;;25.45;12.50;;;;;;;13.57;63.07;101298.50;5053892;28;20372;-47
2023/06/14 03:16:29;;;;;;;23.13;12.57;;;;;;;13.52;62.83;101300.09;5053552;28;20021;-44
2023/06/14 03:18:55;;;;;;;23.92;12.35;;;;;;;13.50;62.63;101297.47;5053516;28;20021;-48
2023/06/14 03:21:20;;;;;;;23.20;12.27;;;;;;;13.53;63.08;101306.16;5053342;28;20052;-49
2023/06/14 03:23:46;;;;;;;25.35;12.35;;;;;;;13.52;62.73;101307.88;5053120;28;20052;-43
2023/06/14 03:26:14;;;;;;;26.20;12.70;;;;;;;13.52;63.54;101304.38;5053591;28;20151;-46
2023/06/14 03:28:41;;;;;;;25.55;12.27;;;;;;;13.44;63.42;101306.78;5053633;28;20423;-48
2023/06/14 03:31:06;;;;;;;31.92;13.23;;;;;;;13.46;62.72;101307.72;5053086;28;20052;-43
2023/06/14 03:33:32;;;;;;;23.30;13.18;;;;;;;13.48;62.72;101309.50;5053362;28;20070;-45
2023/06/14 03:35:57;;;;;;;26.27;12.95;;;;;;;13.49;62.75;101313.84;5053726;28;20044;-45
2023/06/14 03:38:23;;;;;;;26.85;12.90;;;;;;;13.58;63.69;101309.72;5052511;28;20036;-45
2023/06/14 03:40:48;;;;;;;25.10;12.52;;;;;;;13.56;64.13;101319.19;5053345;28;20029;-46
2023/06/14 03:43:14;;;;;;;24.88;12.10;;;;;;;13.44;65.43;101315.44;5053668;28;20027;-43
2023/06/14 03:45:40;;;;;;;31.38;12.30;;;;;;;13.49;64.69;101316.44;5052540;28;20078;-46
2023/06/14 03:48:06;;;;;;;18.95;11.95;;;;;;;13.54;64.98;101320.84;5053516;28;20036;-45
2023/06/14 03:50:32;;;;;;;29.52;13.35;;;;;;;13.43;65.97;101318.00;5053170;28;20051;-47
2023/06/14 03:52:58;;;;;;;28.52;12.63;;;;;;;13.50;65.65;101318.19;5052508;28;20029;-47
2023/06/14 03:55:25;;;;;;;29.48;12.75;;;;;;;13.59;65.06;101324.44;5052956;28;20388;-43
2023/06/14 03:57:50;;;;;;;25.27;12.27;;;;;;;13.47;64.99;101323.28;5052907;28;20070;-45
2023/06/14 04:00:16;;;;;;;29.92;12.15;;;;;;;13.48;66.44;101324.19;5052169;28;20017;-45
2023/06/14 04:02:41;;;;;;;28.23;12.57;;;;;;;13.53;66.81;101321.69;5053169;28;20033;-45
2023/06/14 04:05:08;;;;;;;24.52;12.68;;;;;;;13.48;65.42;101325.03;5053046;28;20025;-46
2023/06/14 04:07:39;;;;;;;34.07;13.30;;;;;;;13.53;65.47;101324.28;5052278;28;20025;-48
2023/06/14 04:10:06;;;;;;;26.25;12.85;;;;;;;13.45;66.53;101329.25;5053172;28;20309;-43
2023/06/14 04:12:31;;;;;;;26.85;12.65;;;;;;;13.58;66.42;101333.94;5052648;28;20040;-48
2023/06/14 04:14:56;;;;;;;32.33;13.30;;;;;;;13.55;66.35;101335.56;5052267;28;20022;-47
2023/06/14 04:17:22;;;;;;;29.30;12.77;;;;;;;13.61;65.85;101333.13;5052623;28;20025;-44
2023/06/14 04:19:47;;;;;;;40.53;12.82;;;;;;;13.58;67.43;101344.28;5052543;28;20037;-46
2023/06/14 04:22:12;;;;;;;32.38;13.27;;;;;;;13.62;68.10;101337.44;5052265;28;20028;-47
2023/06/14 04:24:38;;;;;;;32.55;13.27;;;;;;;13.64;68.00;101335.78;5052444;28;20035;-47
2023/06/14 04:27:03;;;;;;;37.85;13.63;;;;;;;13.70;65.63;101345.41;5051978;28;20021;-44
2023/06/14 04:29:29;;;;;;;26.75;13.13;;;;;;;13.75;67.94;101344.69;5052139;28;20112;-44
2023/06/14 04:31:58;;;;;;;32.95;13.75;;;;;;;13.80;68.37;101343.09;5052903;28;20029;-48
2023/06/14 04:34:29;;;;;;;26.95;12.15;;;;;;;13.92;67.88;101346.81;5051704;28;20041;-43
2023/06/14 04:36:56;;;;;;;25.63;13.25;;;;;;;13.95;67.88;101352.06;5052639;28;20104;-47
2023/06/14 04:39:22;;;;;;;38.72;13.35;;;;;;;13.97;69.26;101343.50;5052280;28;20029;-44
2023/06/14 04:41:51;;;;;;;26.17;12.77;;;;;;;14.09;70.73;101348.09;5052012;28;20037;-43
2023/06/14 04:44:16;;;;;;;30.05;13.43;;;;;;;14.28;67.17;101353.69;5052579;28;20037;-48
2023/06/14 04:46:48;;;;;;;28.35;12.57;;;;;;;14.30;66.68;101349.41;5052736;28;20021;-46
2023/06/14 04:49:15;;;;;;;31.17;12.38;;;;;;;14.42;66.50;101351.41;5051833;28;20032;-43
2023/06/14 04:51:42;;;;;;;27.42;11.98;;;;;;;14.52;66.93;101350.75;5052591;28;20029;-44
2023/06/14 04:54:13;;;;;;;22.98;11.95;;;;;;;14.62;67.37;101352.69;5052218;28;20079;-48
2023/06/14 04:56:39;;;;;;;27.17;11.32;;;;;;;14.76;63.36;101349.56;5051935;28;20069;-43
2023/06/14 04:59:05;;;;;;;32.13;11.82;;;;;;;14.96;61.62;101352.53;5052558;28;20079;-46
2023/06/14 05:01:34;;;;;;;27.83;11.63;;;;;;;15.12;60.42;101354.59;5051959;28;20033;-46
2023/06/14 05:03:59;;;;;;;27.92;10.95;;;;;;;15.23;59.84;101359.13;5051875;28;20171;-46
2023/06/14 05:06:26;;;;;;;21.20;11.07;;;;;;;15.32;59.73;101361.88;5051982;28;20110;-43
2023/06/14 05:08:51;;;;;;;24.80;10.88;;;;;;;15.44;59.32;101359.50;5052395;28;20032;-49
2023/06/14 05:11:19;;;;;;;25.17;10.57;;;;;;;15.55;58.94;101358.81;5051649;28;20024;-44
2023/06/14 05:13:44;;;;;;;22.65;10.57;;;;;;;15.60;58.39;101358.03;5052393;28;20029;-44
2023/06/14 05:16:11;;;;;;;27.15;11.20;;;;;;;15.75;57.34;101362.63;5052176;28;20017;-49
2023/06/14 05:18:37;;;;;;;25.60;10.25;;;;;;;15.81;58.20;101367.06;5051589;28;20051;-48
2023/06/14 05:21:04;;;;;;;21.88;10.70;;;;;;;15.86;58.73;101370.63;5051951;28;20083;-47
2023/06/14 05:23:30;;;;;;;25.83;11.50;;;;;;;15.93;58.36;101372.50;5051469;28;20029;-46
2023/06/14 05:25:55;;;;;;;28.15;11.70;;;;;;;16.02;59.39;101366.53;5052252;28;20286;-46
2023/06/14 05:28:20;;;;;;;26.20;11.40;;;;;;;16.10;57.71;101366.66;5051997;28;20068;-42
2023/06/14 05:30:46;;;;;;;27.27;10.68;;;;;;;16.16;57.71;101371.94;5051563;28;20025;-46
2023/06/14 05:33:11;;;;;;;22.77;10.90;;;;;;;16.25;56.51;101376.41;5052258;28;20469;-43
2023/06/14 05:35:37;;;;;;;26.13;11.10;;;;;;;16.35;57.38;101375.69;5051719;28;20107;-42
2023/06/14 05:38:03;;;;;;;23.00;11.35;;;;;;;16.42;57.34;101377.53;5051524;28;20045;-45
2023/06/14 05:40:28;;;;;;;28.77;11.55;;;;;;;16.49;56.88;101377.59;5052709;28;20067;-45
2023/06/14 05:42:53;;;;;;;25.63;11.43;;;;;;;16.55;56.68;101377.69;5055769;28;20388;-45
2023/06/14 05:45:19;;;;;;;29.83;11.98;;;;;;;16.61;55.97;101383.00;5054603;28;20047;-41
2023/06/14 05:47:44;;;;;;;26.80;11.23;;;;;;;16.71;56.63;101390.06;5055679;28;20068;-45
2023/06/14 05:50:09;;;;;;;35.90;11.65;;;;;;;16.77;56.07;101395.34;5055500;28;20047;-45
2023/06/14 05:52:36;;;;;;;25.73;11.98;;;;;;;16.84;55.80;101395.44;5054596;28;20033;-45
2023/06/14 05:55:03;;;;;;;23.17;11.40;;;;;;;16.93;57.11;101395.56;5055439;28;20385;-45
2023/06/14 05:57:28;;;;;;;24.08;11.55;;;;;;;17.01;56.12;101393.94;5055072;28;20268;-46
2023/06/14 05:59:53;;;;;;;21.67;11.13;;;;;;;17.08;53.98;101397.47;5054945;28;20032;-45
2023/06/14 06:02:19;;;;;;;25.35;11.80;;;;;;;17.13;54.04;101402.75;5055024;28;20033;-44
2023/06/14 06:04:44;;;;;;;22.35;11.20;;;;;;;17.24;55.01;101395.94;5055015;28;20029;-42
2023/06/14 06:07:10;;;;;;;23.20;11.15;;;;;;;17.32;54.87;101394.28;5054936;28;20490;-44
2023/06/14 06:09:35;;;;;;;27.33;11.25;;;;;;;17.45;54.30;101405.69;5055047;28;20024;-45
2023/06/14 06:12:01;;;;;;;28.75;11.30;;;;;;;17.49;52.85;101402.25;5054954;28;20024;-45
2023/06/14 06:14:26;;;;;;;28.67;11.20;;;;;;;17.51;51.44;101404.91;5054389;28;20025;-44
2023/06/14 06:16:53;;;;;;;22.25;10.85;;;;;;;17.61;53.60;101406.69;5055107;28;20025;-44
2023/06/14 06:19:18;;;;;;;36.20;11.83;;;;;;;17.67;52.66;101398.94;5054366;28;20032;-43
2023/06/14 06:21:43;;;;;;;33.60;11.13;;;;;;;17.77;54.75;101413.81;5054607;28;20340;-46
2023/06/14 06:24:09;;;;;;;28.15;11.63;;;;;;;17.86;52.59;101409.56;5055026;28;20358;-46
2023/06/14 06:26:34;;;;;;;22.42;11.10;;;;;;;17.93;51.69;101419.19;5054344;28;20883;-43
2023/06/14 06:29:00;;;;;;;18.67;11.45;;;;;;;18.04;52.22;101420.16;5054794;28;20021;-41
2023/06/14 06:31:27;;;;;;;21.33;11.02;;;;;;;18.14;52.09;101422.81;5054417;28;20028;-43
2023/06/14 06:33:53;;;;;;;19.95;10.52;;;;;;;18.23;51.32;101428.09;5053859;28;20029;-46
2023/06/14 06:36:19;;;;;;;18.52;9.88;;;;;;;18.32;49.66;101428.19;5054583;28;20095;-42
2023/06/14 06:38:45;;;;;;;19.95;10.32;;;;;;;18.45;50.17;101433.47;5054844;28;20108;-42
2023/06/14 06:41:10;;;;;;;19.58;10.25;;;;;;;18.57;49.45;101433.56;5053760;28;20021;-43
2023/06/14 06:43:35;;;;;;;20.67;9.98;;;;;;;18.65;49.30;101431.00;5054211;28;20029;-45
2023/06/14 06:46:01;;;;;;;19.23;9.52;;;;;;;18.69;48.53;101435.38;5054702;28;20021;-42
2023/06/14 06:48:26;;;;;;;17.83;9.05;;;;;;;18.78;48.26;101439.78;5053541;28;20029;-44
2023/06/14 06:50:52;;;;;;;21.70;10.18;;;;;;;18.89;48.03;101443.31;5054178;28;20378;-47
2023/06/14 06:53:18;;;;;;;20.98;9.25;;;;;;;18.98;47.83;101443.38;5053965;28;20390;-46
2023/06/14 06:55:44;;;;;;;24.63;9.80;;;;;;;19.12;49.80;101442.56;5053920;28;20020;-44
2023/06/14 06:58:09;;;;;;;24.73;9.30;;;;;;;19.21;49.27;101447.81;5054452;28;20357;-41
2023/06/14 07:00:35;;;;;;;21.90;9.63;;;;;;;19.31;48.19;101451.34;5053843;28;20927;-45
2023/06/14 07:03:01;;;;;;;23.30;9.65;;;;;;;19.42;46.58;101450.50;5053578;28;20032;-47
2023/06/14 07:05:26;;;;;;;20.92;9.18;;;;;;;19.50;46.08;101453.13;5054060;28;20036;-45
2023/06/14 07:07:51;;;;;;;17.70;9.10;;;;;;;19.58;46.52;101458.38;5054068;28;20021;-45
2023/06/14 07:10:17;;;;;;;19.70;9.32;;;;;;;19.68;46.41;101454.91;5053471;28;20112;-44
2023/06/14 07:12:42;;;;;;;20.65;9.20;;;;;;;19.79;46.62;101462.75;5054082;28;20047;-40
2023/06/14 07:15:08;;;;;;;17.10;9.25;;;;;;;19.91;46.67;101456.72;5053874;28;20068;-46
2023/06/14 07:17:34;;;;;;;17.20;9.13;;;;;;;19.97;45.34;101455.81;5053080;28;20025;-47
2023/06/14 07:20:00;;;;;;;23.55;8.75;;;;;;;20.10;45.95;101461.94;5053701;28;20381;-45
2023/06/14 07:22:26;;;;;;;19.20;10.00;;;;;;;20.19;44.69;101461.94;5053503;28;20032;-47
2023/06/14 07:24:51;;;;;;;19.00;8.88;;;;;;;20.22;45.02;101461.94;5053406;28;20309;-47
2023/06/14 07:27:17;;;;;;;24.10;9.00;;;;;;;20.36;46.03;101468.03;5053514;28;20025;-48
2023/06/14 07:29:42;;;;;;;17.33;8.82;;;;;;;20.47;44.57;101475.88;5053491;28;20025;-45
2023/06/14 07:32:07;;;;;;;18.40;8.30;;;;;;;20.59;43.85;101477.59;5053069;28;20025;-47
2023/06/14 07:34:32;;;;;;;17.38;8.35;;;;;;;20.61;42.74;101475.84;5053494;28;20419;-47
2023/06/14 07:36:58;;;;;;;18.48;8.25;;;;;;;20.72;43.57;101474.13;5052728;28;20025;-45
2023/06/14 07:39:23;;;;;;;15.60;8.52;;;;;;;20.83;44.17;101476.69;5053248;28;20025;-49
2023/06/14 07:41:48;;;;;;;30.83;8.65;;;;;;;20.88;43.12;101479.31;5053516;28;20040;-46
2023/06/14 07:44:14;;;;;;;22.25;8.65;;;;;;;21.05;43.32;101482.72;5052681;28;20037;-46
2023/06/14 07:46:40;;;;;;;24.83;9.23;;;;;;;21.12;42.24;101487.94;5053027;28;20029;-47
2023/06/14 07:49:05;;;;;;;18.70;7.57;;;;;;;21.18;41.69;101493.16;5053514;28;20040;-47
2023/06/14 07:51:31;;;;;;;19.20;8.63;;;;;;;21.20;40.21;101488.78;5052448;28;20020;-48
2023/06/14 07:53:56;;;;;;;15.88;8.30;;;;;;;21.26;40.21;101491.38;5053431;28;20025;-44
2023/06/14 07:56:23;;;;;;;15.77;7.60;;;;;;;21.29;41.18;101507.09;5052838;28;20031;-43
2023/06/14 07:58:48;;;;;;;14.63;7.63;;;;;;;21.33;40.05;101495.72;5052683;28;20017;-48
2023/06/14 08:01:13;;;;;;;20.48;7.82;;;;;;;21.42;40.30;101496.53;5052992;28;20496;-45
2023/06/14 08:03:39;;;;;;;17.20;7.38;;;;;;;21.60;41.03;101500.84;5051894;28;20099;-47
2023/06/14 08:06:06;;;;;;;18.55;7.35;;;;;;;21.77;43.05;101498.13;5052780;28;20079;-47
2023/06/14 08:08:32;;;;;;;17.60;7.65;;;;;;;21.94;41.67;101498.03;5052807;28;20112;-45
2023/06/14 08:10:57;;;;;;;17.27;7.47;;;;;;;21.93;40.87;101507.63;5052785;28;20107;-47
2023/06/14 08:13:22;;;;;;;15.80;6.85;;;;;;;22.03;39.40;101497.94;5052173;28;20033;-46
2023/06/14 08:15:47;;;;;;;23.63;7.00;;;;;;;22.09;39.79;101497.00;5053096;28;20108;-47
2023/06/14 08:18:13;;;;;;;15.10;6.53;;;;;;;22.17;39.97;101500.47;5052576;28;20444;-47
2023/06/14 08:20:38;;;;;;;14.02;6.70;;;;;;;22.15;38.14;101500.47;5051773;28;20043;-45
2023/06/14 08:23:04;;;;;;;19.25;6.72;;;;;;;22.33;40.64;101504.69;5052858;28;20039;-47
2023/06/14 08:25:31;;;;;;;21.40;5.68;;;;;;;22.41;37.69;101501.16;5052311;28;20049;-47
2023/06/14 08:27:56;;;;;;;15.57;5.80;;;;;;;22.47;38.01;101498.47;5052112;28;20520;-48
2023/06/14 08:30:22;;;;;;;13.93;5.47;;;;;;;22.53;37.46;101507.16;5052631;28;20033;-47
2023/06/14 08:32:47;;;;;;;14.00;5.30;;;;;;;22.52;35.29;101504.56;5052576;28;20104;-47
2023/06/14 08:35:13;;;;;;;11.95;5.70;;;;;;;22.50;35.73;101506.31;5052365;28;20087;-47
2023/06/14 08:37:40;;;;;;;16.48;5.75;;;;;;;22.57;35.98;101502.75;5052579;28;20384;-47
2023/06/14 08:40:18;;;;;;;13.02;5.72;;;;;;;22.60;36.22;101507.13;5052361;28;20048;-46
2023/06/14 08:42:46;;;;;;;12.65;5.57;;;;;;;22.71;36.43;101499.09;5052649;28;20060;-47
2023/06/14 08:45:11;;;;;;;11.63;4.85;;;;;;;22.90;37.04;101500.63;5052579;28;20017;-45
2023/06/14 08:47:37;;;;;;;11.88;5.30;;;;;;;22.84;35.30;101495.47;5051511;28;20358;-48
2023/06/14 08:50:04;;;;;;;12.55;5.35;;;;;;;23.02;36.03;101497.00;5052663;28;20021;-45
2023/06/14 08:52:33;;;;;;;;;;;;;;;23.13;36.53;101505.63;5052533;28;20028;-44
2023/06/14 08:54:59;;;;;;;12.70;5.10;;;;;;;23.13;34.87;101504.78;5052167;28;19909;-47
2023/06/14 08:57:30;;;;;;;11.18;4.40;;;;;;;23.20;35.32;101503.81;5052277;28;20067;-47
2023/06/14 08:59:56;;;;;;;13.80;4.40;;;;;;;23.26;34.29;101495.00;5052231;28;20569;-47
2023/06/14 09:02:22;;;;;;;13.20;4.60;;;;;;;23.48;35.14;101503.47;5051824;28;20036;-46
2023/06/14 09:04:49;;;;;;;13.88;4.20;;;;;;;23.51;32.57;101498.16;5052629;28;20139;-45
2023/06/14 09:07:14;;;;;;;8.18;3.90;;;;;;;23.59;31.43;101498.03;5052333;28;20041;-46
2023/06/14 09:09:41;;;;;;;15.38;4.32;;;;;;;23.65;33.02;101493.59;5051565;28;20021;-47
2023/06/14 09:12:15;;;;;;;9.13;4.50;;;;;;;23.81;32.73;101506.50;5052235;28;20433;-46
2023/06/14 09:14:42;;;;;;;15.13;4.32;;;;;;;23.98;32.47;101504.50;5053465;28;20025;-48
2023/06/14 09:17:07;;;;;;;12.80;3.60;;;;;;;24.07;32.13;101502.63;5055884;28;20025;-48
2023/06/14 09:19:34;;;;;;;8.38;3.17;;;;;;;24.10;30.29;101515.75;5055791;28;20176;-45
2023/06/14 09:22:00;;;;;;;5.57;2.45;;;;;;;24.13;29.54;101513.03;5055800;28;20401;-45
2023/06/14 09:24:26;;;;;;;5.82;2.40;;;;;;;24.28;30.02;101501.41;5055293;28;20029;-44
2023/06/14 09:26:51;;;;;;;9.50;2.63;;;;;;;24.21;28.57;101505.91;5055951;28;20017;-41
2023/06/14 09:29:17;;;;;;;5.88;2.53;;;;;;;24.28;27.99;101502.25;5055494;28;20461;-46
2023/06/14 09:31:45;;;;;;;6.80;2.58;;;;;;;24.40;29.91;101502.94;5055393;28;20393;-44
2023/06/14 09:34:11;;;;;;;6.28;2.65;;;;;;;24.37;28.76;101508.28;5055910;28;20484;-46
2023/06/14 09:36:40;;;;;;;7.57;2.47;;;;;;;24.40;28.21;101505.56;5054853;28;20484;-48
2023/06/14 09:39:06;;;;;;;4.75;2.13;;;;;;;24.55;27.49;101513.19;5055682;28;20476;-46
2023/06/14 09:41:40;;;;;;;5.03;2.30;;;;;;;24.68;27.40;101520.94;5055373;28;20544;-46
2023/06/14 09:44:09;;;;;;;8.07;2.13;;;;;;;24.52;27.09;101513.28;5055278;28;20025;-45
2023/06/14 09:46:36;;;;;;;6.50;2.55;;;;;;;24.48;27.38;101509.81;5055496;28;20036;-44
2023/06/14 09:49:03;;;;;;;5.47;2.33;;;;;;;25.02;29.56;101520.25;5055538;28;20025;-46
2023/06/14 09:51:31;;;;;;;7.20;2.40;;;;;;;25.20;26.79;101511.97;5054832;28;20033;-47
2023/06/14 09:54:04;;;;;;;7.97;2.70;;;;;;;25.55;26.96;101518.31;5055505;28;20092;-47
2023/06/14 09:56:34;;;;;;;6.28;2.63;;;;;;;25.25;26.65;101511.88;5055071;28;20029;-46
2023/06/14 09:58:59;;;;;;;7.20;2.50;;;;;;;25.68;27.45;101521.53;5055091;28;20021;-47
2023/06/14 10:01:29;;;;;;;7.00;2.60;;;;;;;25.44;27.07;101517.66;5055079;28;20035;-47
2023/06/14 10:04:00;;;;;;;7.63;2.90;;;;;;;25.82;27.50;101517.69;5055183;28;20112;-47
2023/06/14 10:06:28;;;;;;;5.18;2.65;;;;;;;25.60;27.02;101508.50;5054288;28;20021;-49
2023/06/14 10:08:56;;;;;;;9.15;2.75;;;;;;;25.88;26.66;101510.47;5055435;28;20048;-44
2023/06/14 10:11:23;;;;;;;7.43;3.10;;;;;;;26.25;27.42;101506.97;5054820;28;20020;-48
2023/06/14 10:13:50;;;;;;;7.30;2.90;;;;;;;26.47;26.10;101511.69;5054594;28;20439;-48
2023/06/14 10:16:23;;;;;;;6.78;3.00;;;;;;;26.59;25.73;101510.50;5055058;28;20052;-45
2023/06/14 10:18:55;;;;;;;8.10;2.97;;;;;;;27.10;26.00;101507.34;5054201;28;20029;-46
2023/06/14 10:21:46;;;;;;;7.43;3.00;;;;;;;27.67;26.22;101501.22;5054613;28;20135;-48
2023/06/14 10:24:15;;;;;;;5.65;3.10;;;;;;;28.75;23.43;101489.69;5054741;28;20032;-44
2023/06/14 10:27:02;;;;;;;6.97;3.10;;;;;;;29.86;24.07;101504.00;5053785;28;20028;-48
2023/06/14 10:29:31;;;;;;;5.22;2.75;;;;;;;29.86;22.15;101509.31;5054548;28;20096;-46
2023/06/14 10:31:58;;;;;;;6.00;3.10;;;;;;;31.49;20.22;101508.41;5054484;28;20473;-47
2023/06/14 10:34:26;;;;;;;7.15;3.30;;;;;;;31.46;20.01;101515.66;5054079;28;20190;-46
2023/06/14 10:37:05;;;;;;;12.45;2.92;;;;;;;32.48;20.21;101516.81;5055082;28;20032;-44
2023/06/14 10:39:32;;;;;;;6.22;2.75;;;;;;;33.04;19.02;101513.03;5054104;28;20468;-43
2023/06/14 10:42:00;;;;;;;7.90;2.85;;;;;;;33.03;17.90;101520.19;5053956;28;20361;-43
2023/06/14 10:44:28;;;;;;;9.50;2.78;;;;;;;32.84;17.94;101512.31;5054492;28;20028;-44
2023/06/14 10:46:54;;;;;;;9.25;2.97;;;;;;;33.46;18.62;101504.44;5054001;28;20064;-42
2023/06/14 10:49:38;;;;;;;8.80;3.00;;;;;;;33.16;18.54;101517.72;5054162;28;20033;-45
2023/06/14 10:52:06;;;;;;;9.50;3.22;;;;;;;33.11;17.83;101509.09;5054311;28;20017;-43
2023/06/14 10:54:31;;;;;;;10.23;3.10;;;;;;;32.17;18.70;101507.75;5053576;28;20373;-42
2023/06/14 10:56:59;;;;;;;11.17;3.00;;;;;;;32.37;19.11;101513.88;5054594;28;20032;-48
2023/06/14 10:59:24;;;;;;;9.63;2.60;;;;;;;32.09;19.19;101504.59;5053945;28;20033;-44
2023/06/14 11:01:49;;;;;;;6.60;2.50;;;;;;;32.71;18.46;101506.75;5053807;28;20025;-45
2023/06/14 11:04:20;;;;;;;6.60;2.80;;;;;;;33.59;19.11;101509.09;5054198;28;20373;-44
2023/06/14 11:06:52;;;;;;;5.88;2.78;;;;;;;33.79;17.87;101508.81;5053958;28;20024;-43
2023/06/14 11:09:45;;;;;;;8.73;3.08;;;;;;;33.25;19.87;101521.69;5053455;28;20167;-46
2023/06/14 11:12:11;;;;;;;6.07;2.42;;;;;;;33.21;18.79;101504.06;5054096;28;20025;-48